Terminal Aerodrome Forecast
Issued by NWS

Home | Current Version | Previous Version | Text Only | Print | Product List | Glossary On
Versions: 1 2 3 4 5 6 7 8 9 10 11 12 13 14 15 16 17 18 19 20 21
000
FTUS44 KBMX 192340
TAFTOI
TAF
KTOI 192340Z 2000/2024 15010KT P6SM VCSH SCT045 OVC060
      TEMPO 2003/2006 VRB10G18KT 1SM TSRA BR OVC015CB
     FM200600 19006KT 4SM -RA BR OVC015
     FM200800 19004KT 3SM -RA BR OVC007
     FM200900 19003KT 2SM -DZ BR OVC007 PROB30 2010/2014 1/2SM -DZ
      FG OVC003
     FM201700 22008KT P6SM OVC015=

USA.gov is the U.S. government's official web portal to all federal, state and local government web resources and services.